createdAt,value
2023-05-15T00:02:13.305Z,5.76
2023-05-15T00:04:40.631Z,6.91
2023-05-15T00:07:07.987Z,5.66
2023-05-15T00:09:34.752Z,6.14
2023-05-15T00:12:01.778Z,7.63
2023-05-15T00:14:28.544Z,7.17
2023-05-15T00:16:55.723Z,6.43
2023-05-15T00:19:22.948Z,5.78
2023-05-15T00:21:50.050Z,7.19
2023-05-15T00:24:16.933Z,7.63
2023-05-15T00:26:43.655Z,7.28
2023-05-15T00:29:10.725Z,6.41
2023-05-15T00:31:39.543Z,7.22
2023-05-15T00:34:06.519Z,6.00
2023-05-15T00:36:33.734Z,6.71
2023-05-15T00:39:00.653Z,6.29
2023-05-15T00:41:28.884Z,6.66
2023-05-15T00:43:56.105Z,6.35
2023-05-15T00:46:24.824Z,5.29
2023-05-15T00:48:52.149Z,5.87
2023-05-15T00:51:18.898Z,6.55
2023-05-15T00:53:45.984Z,5.75
2023-05-15T00:56:12.836Z,6.71
2023-05-15T00:58:40.103Z,5.25
2023-05-15T01:01:08.493Z,5.67
2023-05-15T01:03:37.466Z,6.62
2023-05-15T01:06:04.477Z,7.09
2023-05-15T01:08:47.336Z,6.80
2023-05-15T01:11:16.200Z,5.36
2023-05-15T01:13:43.882Z,6.57
2023-05-15T01:16:11.288Z,5.98
2023-05-15T01:18:39.013Z,5.78
2023-05-15T01:21:40.966Z,6.76
2023-05-15T01:24:45.697Z,6.43
2023-05-15T01:27:25.272Z,7.45
2023-05-15T01:30:12.597Z,6.37
2023-05-15T01:32:51.199Z,5.37
2023-05-15T01:35:28.619Z,6.14
2023-05-15T01:38:15.635Z,6.52
2023-05-15T01:40:44.979Z,7.11
2023-05-15T01:43:14.222Z,7.23
2023-05-15T01:45:43.180Z,7.64
2023-05-15T01:48:13.211Z,6.83
2023-05-15T01:50:43.060Z,6.31
2023-05-15T01:53:11.406Z,6.56
2023-05-15T01:55:40.273Z,5.90
2023-05-15T01:58:07.377Z,5.93
2023-05-15T02:00:35.919Z,7.07
2023-05-15T02:03:05.951Z,5.90
2023-05-15T02:05:34.648Z,7.00
2023-05-15T02:08:03.652Z,6.81
2023-05-15T02:10:31.955Z,7.07
2023-05-15T02:13:00.102Z,6.74
2023-05-15T02:15:28.411Z,6.05
2023-05-15T02:17:55.593Z,6.99
2023-05-15T02:20:22.494Z,7.21
2023-05-15T02:22:49.689Z,6.59
2023-05-15T02:25:16.437Z,5.29
2023-05-15T02:27:53.766Z,5.00
2023-05-15T02:30:33.204Z,5.83
2023-05-15T02:33:34.921Z,3.49
2023-05-15T02:36:16.958Z,5.77
2023-05-15T02:38:53.164Z,5.67
2023-05-15T02:41:22.032Z,5.06
2023-05-15T02:43:53.163Z,7.00
2023-05-15T02:46:21.740Z,6.50
2023-05-15T02:48:49.352Z,6.14
2023-05-15T02:51:16.135Z,6.22
2023-05-15T02:53:43.279Z,4.65
2023-05-15T02:56:10.338Z,6.29
2023-05-15T02:58:39.340Z,4.56
2023-05-15T03:01:06.266Z,5.94
2023-05-15T03:03:33.417Z,5.08
2023-05-15T03:06:01.113Z,5.24
2023-05-15T03:08:28.808Z,6.22
2023-05-15T03:10:55.756Z,6.74
2023-05-15T03:13:22.971Z,5.45
2023-05-15T03:15:50.076Z,5.67
2023-05-15T03:18:19.138Z,6.59
2023-05-15T03:20:48.532Z,6.22
2023-05-15T03:23:15.510Z,5.52
2023-05-15T03:25:42.370Z,6.36
2023-05-15T03:28:09.881Z,5.66
2023-05-15T03:30:36.598Z,6.49
2023-05-15T03:33:04.160Z,6.24
2023-05-15T03:35:32.620Z,6.38
2023-05-15T03:37:59.418Z,5.96
2023-05-15T03:40:26.193Z,5.57
2023-05-15T03:42:53.867Z,6.29
2023-05-15T03:45:21.324Z,5.58
2023-05-15T03:47:49.277Z,5.76
2023-05-15T03:50:16.390Z,7.09
2023-05-15T03:52:43.328Z,5.81
2023-05-15T03:55:10.543Z,5.25
2023-05-15T03:57:37.418Z,5.33
2023-05-15T04:00:10.228Z,5.54
2023-05-15T04:02:41.477Z,5.52
2023-05-15T04:05:09.634Z,6.54
2023-05-15T04:07:37.296Z,4.66
2023-05-15T04:10:04.645Z,5.49
2023-05-15T04:12:35.585Z,6.28
2023-05-15T04:15:15.710Z,5.77
2023-05-15T04:17:43.497Z,6.04
2023-05-15T04:20:14.326Z,6.13
2023-05-15T04:22:42.680Z,6.77
2023-05-15T04:25:11.067Z,7.34
2023-05-15T04:27:38.770Z,4.88
2023-05-15T04:30:06.916Z,5.35
2023-05-15T04:32:34.277Z,4.49
2023-05-15T04:35:01.469Z,5.65
2023-05-15T04:37:29.007Z,5.33
2023-05-15T04:39:55.813Z,5.49
2023-05-15T04:42:22.539Z,6.16
2023-05-15T04:44:49.660Z,5.80
2023-05-15T04:47:16.769Z,6.12
2023-05-15T04:49:43.560Z,6.48
2023-05-15T04:52:10.732Z,6.78
2023-05-15T04:54:37.452Z,6.22
2023-05-15T04:57:04.646Z,5.52
2023-05-15T04:59:31.452Z,7.21
2023-05-15T05:01:58.465Z,6.11
2023-05-15T05:04:26.264Z,5.55
2023-05-15T05:06:52.967Z,7.07
2023-05-15T05:09:20.169Z,7.48
2023-05-15T05:11:47.577Z,7.58
2023-05-15T05:14:15.715Z,7.35
2023-05-15T05:16:45.171Z,7.43
2023-05-15T05:19:12.307Z,7.27
2023-05-15T05:21:39.528Z,6.41
2023-05-15T05:24:06.360Z,6.43
2023-05-15T05:26:33.090Z,4.88
2023-05-15T05:28:59.809Z,6.47
2023-05-15T05:31:26.586Z,7.52
2023-05-15T05:33:53.378Z,5.41
2023-05-15T05:36:20.485Z,7.57
2023-05-15T05:38:47.256Z,8.67
2023-05-15T05:41:14.048Z,7.40
2023-05-15T05:43:41.283Z,7.30
2023-05-15T05:46:08.089Z,6.91
2023-05-15T05:48:35.124Z,6.77
2023-05-15T05:51:02.029Z,6.61
2023-05-15T05:53:28.884Z,6.23
2023-05-15T05:55:56.772Z,6.71
2023-05-15T05:58:25.940Z,6.37
2023-05-15T06:00:53.763Z,6.22
2023-05-15T06:03:21.368Z,7.21
2023-05-15T06:05:48.757Z,6.39
2023-05-15T06:08:15.896Z,6.88
2023-05-15T06:10:42.821Z,5.00
2023-05-15T06:13:10.279Z,5.94
2023-05-15T06:15:37.520Z,6.83
2023-05-15T06:18:04.531Z,7.16
2023-05-15T06:20:31.460Z,6.54
2023-05-15T06:22:58.182Z,5.96
2023-05-15T06:25:25.672Z,6.75
2023-05-15T06:27:52.365Z,6.47
2023-05-15T06:30:19.084Z,6.89
2023-05-15T06:32:46.178Z,6.33
2023-05-15T06:35:13.125Z,5.99
2023-05-15T06:37:40.701Z,6.76
2023-05-15T06:40:08.015Z,5.87
2023-05-15T06:42:34.816Z,7.09
2023-05-15T06:45:01.678Z,8.20
2023-05-15T06:47:28.505Z,7.12
2023-05-15T06:49:55.914Z,8.26
2023-05-15T06:52:22.687Z,8.48
2023-05-15T06:54:49.725Z,8.47
2023-05-15T06:57:16.512Z,7.70
2023-05-15T06:59:43.469Z,7.80
2023-05-15T07:02:11.084Z,8.37
2023-05-15T07:04:37.913Z,8.11
2023-05-15T07:07:05.098Z,7.99
2023-05-15T07:09:31.893Z,8.03
2023-05-15T07:11:58.667Z,7.69
2023-05-15T07:14:26.167Z,8.85
2023-05-15T07:16:52.921Z,8.43
2023-05-15T07:19:22.565Z,8.20
2023-05-15T07:21:49.315Z,7.92
2023-05-15T07:24:16.022Z,9.05
2023-05-15T07:26:54.259Z,8.85
2023-05-15T07:29:26.271Z,7.79
2023-05-15T07:31:53.554Z,8.92
2023-05-15T07:34:20.881Z,9.18
2023-05-15T07:36:47.523Z,7.87
2023-05-15T07:39:14.429Z,8.93
2023-05-15T07:41:41.440Z,9.31
2023-05-15T07:44:08.353Z,8.17
2023-05-15T07:46:35.579Z,7.63
2023-05-15T07:49:03.583Z,9.76
2023-05-15T07:51:30.469Z,8.95
2023-05-15T07:53:57.899Z,8.69
2023-05-15T07:56:25.243Z,10.27
2023-05-15T07:58:54.144Z,8.34
2023-05-15T08:01:20.904Z,9.31
2023-05-15T08:03:47.748Z,10.01
2023-05-15T08:06:14.913Z,9.31
2023-05-15T08:08:42.799Z,9.12
2023-05-15T08:11:09.535Z,10.43
2023-05-15T08:13:36.697Z,10.73
2023-05-15T08:16:03.815Z,10.01
2023-05-15T08:18:30.790Z,10.92
2023-05-15T08:20:58.686Z,8.67
2023-05-15T08:23:26.696Z,8.66
2023-05-15T08:25:53.537Z,9.22
2023-05-15T08:28:20.285Z,8.56
2023-05-15T08:30:47.332Z,10.31
2023-05-15T08:33:14.321Z,11.60
2023-05-15T08:35:42.196Z,11.00
2023-05-15T08:38:09.193Z,11.73
2023-05-15T08:40:39.812Z,11.35
2023-05-15T08:43:15.767Z,10.03
2023-05-15T08:45:43.916Z,12.47
2023-05-15T08:48:16.328Z,12.19
2023-05-15T08:50:44.616Z,10.89
2023-05-15T08:53:13.685Z,12.31
2023-05-15T08:55:42.045Z,12.02
2023-05-15T08:58:09.807Z,11.59
2023-05-15T09:00:37.723Z,12.01
2023-05-15T09:03:05.116Z,9.41
2023-05-15T09:05:32.147Z,12.65
2023-05-15T09:08:02.148Z,12.93
2023-05-15T09:10:29.878Z,14.15
2023-05-15T09:12:58.493Z,15.25
2023-05-15T09:15:25.757Z,11.61
2023-05-15T09:17:53.290Z,11.39
2023-05-15T09:20:29.979Z,11.44
2023-05-15T09:22:58.820Z,11.05
2023-05-15T09:25:39.853Z,10.41
2023-05-15T09:28:09.032Z,10.88
2023-05-15T09:30:39.426Z,10.34
2023-05-15T09:33:06.666Z,11.21
2023-05-15T09:35:39.169Z,12.64
2023-05-15T09:38:12.462Z,12.52
2023-05-15T09:40:43.318Z,11.96
2023-05-15T09:43:12.656Z,11.17
2023-05-15T09:45:39.538Z,11.33
2023-05-15T09:48:08.251Z,11.85
2023-05-15T09:50:37.217Z,10.44
2023-05-15T09:53:05.236Z,9.36
2023-05-15T09:55:36.205Z,10.17
2023-05-15T09:58:13.109Z,9.62
2023-05-15T10:00:47.264Z,10.26
2023-05-15T10:03:15.453Z,9.26
2023-05-15T10:05:44.486Z,9.69
2023-05-15T10:08:12.459Z,10.27
2023-05-15T10:10:39.823Z,9.77
2023-05-15T10:13:08.517Z,10.24
2023-05-15T10:15:35.770Z,9.59
2023-05-15T10:18:05.000Z,11.09
2023-05-15T10:20:35.656Z,12.68
2023-05-15T10:23:05.145Z,13.10
2023-05-15T10:25:54.422Z,14.13
2023-05-15T10:28:22.635Z,14.24
2023-05-15T10:30:49.580Z,13.56
2023-05-15T10:33:16.985Z,13.27
2023-05-15T10:35:46.960Z,14.11
2023-05-15T10:38:15.962Z,15.94
2023-05-15T10:40:44.562Z,16.33
2023-05-15T10:43:14.691Z,16.87
2023-05-15T10:45:41.957Z,19.73
2023-05-15T10:48:12.239Z,21.29
2023-05-15T10:50:40.189Z,22.00
2023-05-15T10:53:09.286Z,15.44
2023-05-15T10:55:36.981Z,15.43
2023-05-15T10:58:09.719Z,13.08
2023-05-15T11:00:44.862Z,12.52
2023-05-15T11:03:16.697Z,10.51
2023-05-15T11:06:13.579Z,10.64
2023-05-15T11:08:45.357Z,9.72
2023-05-15T11:12:00.509Z,10.49
2023-05-15T11:14:29.706Z,10.80
2023-05-15T11:16:58.743Z,8.95
2023-05-15T11:19:28.742Z,9.57
2023-05-15T11:22:17.228Z,10.26
2023-05-15T11:24:54.660Z,9.87
2023-05-15T11:27:31.961Z,6.53
2023-05-15T11:30:05.008Z,9.22
2023-05-15T11:32:40.355Z,9.99
2023-05-15T11:35:22.873Z,9.67
2023-05-15T11:37:54.917Z,8.26
2023-05-15T11:40:23.364Z,8.85
2023-05-15T11:43:01.605Z,7.81
2023-05-15T11:45:31.343Z,8.35
2023-05-15T11:48:02.505Z,6.80
2023-05-15T11:50:32.582Z,7.27
2023-05-15T11:53:04.127Z,8.65
2023-05-15T11:55:33.320Z,6.93
2023-05-15T11:58:01.533Z,8.61
2023-05-15T12:00:29.177Z,6.76
2023-05-15T12:02:56.691Z,8.12
2023-05-15T12:05:24.569Z,8.04
2023-05-15T12:07:51.963Z,9.74
2023-05-15T12:10:18.788Z,9.81
2023-05-15T12:12:46.626Z,8.92
2023-05-15T12:15:15.578Z,11.00
2023-05-15T12:17:44.130Z,10.98
2023-05-15T12:20:16.078Z,10.63
2023-05-15T12:22:42.828Z,10.88
2023-05-15T12:25:12.482Z,9.58
2023-05-15T12:27:40.061Z,8.27
2023-05-15T12:30:07.936Z,9.49
2023-05-15T12:32:36.630Z,9.93
2023-05-15T12:35:04.957Z,10.20
2023-05-15T12:37:36.001Z,9.23
2023-05-15T12:40:11.741Z,7.51
2023-05-15T12:42:39.915Z,9.77
2023-05-15T12:45:14.864Z,9.08
2023-05-15T12:47:44.171Z,8.23
2023-05-15T12:50:16.378Z,6.72
2023-05-15T12:53:03.571Z,8.03
2023-05-15T12:55:35.340Z,9.26
2023-05-15T12:58:07.207Z,9.38
2023-05-15T13:00:36.231Z,8.95
2023-05-15T13:03:04.292Z,8.61
2023-05-15T13:05:35.682Z,8.84
2023-05-15T13:08:04.286Z,8.72
2023-05-15T13:10:36.784Z,7.82
2023-05-15T13:13:03.866Z,9.46
2023-05-15T13:15:35.411Z,9.36
2023-05-15T13:18:11.412Z,8.71
2023-05-15T13:20:46.650Z,10.19
2023-05-15T13:23:19.183Z,10.20
2023-05-15T13:25:48.552Z,9.95
2023-05-15T13:28:16.370Z,9.68
2023-05-15T13:30:43.404Z,9.94
2023-05-15T13:33:11.928Z,9.40
2023-05-15T13:35:40.258Z,10.05
2023-05-15T13:38:10.354Z,9.68
2023-05-15T13:40:38.316Z,10.04
2023-05-15T13:43:06.842Z,9.49
2023-05-15T13:45:34.000Z,8.13
2023-05-15T13:48:01.861Z,9.39
2023-05-15T13:50:28.786Z,9.43
2023-05-15T13:52:56.104Z,10.22
2023-05-15T13:55:23.401Z,10.22
2023-05-15T13:57:51.371Z,9.44
2023-05-15T14:00:19.316Z,11.65
2023-05-15T14:02:46.948Z,10.18
2023-05-15T14:05:15.808Z,10.89
2023-05-15T14:07:42.863Z,11.31
2023-05-15T14:10:11.356Z,11.47
2023-05-15T14:12:38.504Z,12.69
2023-05-15T14:15:05.972Z,8.45
2023-05-15T14:17:33.010Z,10.69
2023-05-15T14:20:00.979Z,10.41
2023-05-15T14:22:27.798Z,11.05
2023-05-15T14:24:54.876Z,10.69
2023-05-15T14:27:21.596Z,10.25
2023-05-15T14:29:49.490Z,11.86
2023-05-15T14:32:17.523Z,10.21
2023-05-15T14:34:44.741Z,9.61
2023-05-15T14:37:12.607Z,9.22
2023-05-15T14:39:39.411Z,8.60
2023-05-15T14:42:06.945Z,9.18
2023-05-15T14:44:34.822Z,9.39
2023-05-15T14:47:10.396Z,8.79
2023-05-15T14:49:37.895Z,10.70
2023-05-15T14:52:08.226Z,14.52
2023-05-15T14:54:35.916Z,12.95
2023-05-15T14:57:02.693Z,11.83
2023-05-15T14:59:29.686Z,10.68
2023-05-15T15:01:56.761Z,11.36
2023-05-15T15:04:23.553Z,12.30
2023-05-15T15:06:50.467Z,14.04
2023-05-15T15:09:21.444Z,12.46
2023-05-15T15:11:48.936Z,12.10
2023-05-15T15:14:16.809Z,11.47
2023-05-15T15:16:44.344Z,12.05
2023-05-15T15:19:11.685Z,10.03
2023-05-15T15:21:38.596Z,8.97
2023-05-15T15:24:05.835Z,10.22
2023-05-15T15:26:33.566Z,11.81
2023-05-15T15:29:02.125Z,13.25
2023-05-15T15:31:30.308Z,11.13
2023-05-15T15:33:58.907Z,11.99
2023-05-15T15:36:26.396Z,10.43
2023-05-15T15:38:53.318Z,11.41
2023-05-15T15:41:23.661Z,10.34
2023-05-15T15:43:50.731Z,10.70
2023-05-15T15:46:18.591Z,9.77
2023-05-15T15:48:45.526Z,8.83
2023-05-15T15:51:12.568Z,9.12
2023-05-15T15:53:39.292Z,8.22
2023-05-15T15:56:07.639Z,7.96
2023-05-15T15:58:34.518Z,8.67
2023-05-15T16:01:03.706Z,7.73
2023-05-15T16:03:32.285Z,8.95
2023-05-15T16:06:00.296Z,6.57
2023-05-15T16:08:27.536Z,8.27
2023-05-15T16:10:55.007Z,7.60
2023-05-15T16:13:21.847Z,6.94
2023-05-15T16:15:49.725Z,7.11
2023-05-15T16:18:17.685Z,7.02
2023-05-15T16:20:44.556Z,6.96
2023-05-15T16:23:15.060Z,7.51
2023-05-15T16:25:43.325Z,8.92
2023-05-15T16:28:10.271Z,8.79
2023-05-15T16:30:48.134Z,8.65
2023-05-15T16:33:18.816Z,7.55
2023-05-15T16:35:47.619Z,8.66
2023-05-15T16:38:14.718Z,8.48
2023-05-15T16:40:41.626Z,7.63
2023-05-15T16:43:08.501Z,8.64
2023-05-15T16:45:35.501Z,7.01
2023-05-15T16:48:03.238Z,9.35
2023-05-15T16:50:33.057Z,8.63
2023-05-15T16:52:59.887Z,9.61
2023-05-15T16:55:26.938Z,9.26
2023-05-15T16:57:54.073Z,8.22
2023-05-15T17:00:21.535Z,9.57
2023-05-15T17:02:50.155Z,8.10
2023-05-15T17:05:18.096Z,9.39
2023-05-15T17:07:45.304Z,9.67
2023-05-15T17:10:13.237Z,9.83
2023-05-15T17:12:40.464Z,8.39
2023-05-15T17:15:07.895Z,9.80
2023-05-15T17:17:34.920Z,8.12
2023-05-15T17:20:03.589Z,9.41
2023-05-15T17:22:30.593Z,8.77
2023-05-15T17:24:57.538Z,8.93
2023-05-15T17:27:24.614Z,8.69
2023-05-15T17:29:52.179Z,9.53
2023-05-15T17:32:20.663Z,9.34
2023-05-15T17:34:48.366Z,9.19
2023-05-15T17:37:15.268Z,9.97
2023-05-15T17:39:42.770Z,8.65
2023-05-15T17:42:09.774Z,9.35
2023-05-15T17:44:37.177Z,8.23
2023-05-15T17:47:05.906Z,7.96
2023-05-15T17:49:34.671Z,9.12
2023-05-15T17:52:01.494Z,10.30
2023-05-15T17:54:28.859Z,7.39
2023-05-15T17:56:55.598Z,8.71
2023-05-15T17:59:22.629Z,8.90
2023-05-15T18:01:51.190Z,9.13
2023-05-15T18:04:18.890Z,8.30
2023-05-15T18:06:45.695Z,8.57
2023-05-15T18:09:12.902Z,7.40
2023-05-15T18:11:39.692Z,8.21
2023-05-15T18:14:06.714Z,8.18
2023-05-15T18:16:35.120Z,6.48
2023-05-15T18:19:01.919Z,7.49
2023-05-15T18:21:29.114Z,7.54
2023-05-15T18:23:56.104Z,8.36
2023-05-15T18:26:23.099Z,8.14
2023-05-15T18:28:50.569Z,8.12
2023-05-15T18:31:17.748Z,7.05
2023-05-15T18:33:45.816Z,7.40
2023-05-15T18:36:12.693Z,7.41
2023-05-15T18:38:39.743Z,7.95
2023-05-15T18:41:06.695Z,6.84
2023-05-15T18:43:34.320Z,7.48
2023-05-15T18:46:01.200Z,6.64
2023-05-15T18:48:28.538Z,7.16
2023-05-15T18:50:55.921Z,6.52
2023-05-15T18:53:23.122Z,5.52
2023-05-15T18:55:50.787Z,6.46
2023-05-15T18:58:17.635Z,7.10
2023-05-15T19:00:44.981Z,6.78
2023-05-15T19:03:12.301Z,6.52
2023-05-15T19:05:39.096Z,5.78
2023-05-15T19:08:07.326Z,5.83
2023-05-15T19:10:34.855Z,6.05
2023-05-15T19:13:01.985Z,6.66
2023-05-15T19:15:28.904Z,6.13
2023-05-15T19:17:55.964Z,6.28
2023-05-15T19:20:23.168Z,6.84
2023-05-15T19:22:51.330Z,6.77
2023-05-15T19:25:20.147Z,6.98
2023-05-15T19:27:46.938Z,6.69
2023-05-15T19:30:14.114Z,6.17
2023-05-15T19:32:41.291Z,5.03
2023-05-15T19:35:09.081Z,5.79
2023-05-15T19:37:36.548Z,5.70
2023-05-15T19:40:05.157Z,5.94
2023-05-15T19:42:31.946Z,5.14
2023-05-15T19:44:58.932Z,6.67
2023-05-15T19:47:26.882Z,5.68
2023-05-15T19:49:54.083Z,4.91
2023-05-15T19:52:21.587Z,5.11
2023-05-15T19:54:48.679Z,5.53
2023-05-15T19:57:16.323Z,6.28
2023-05-15T19:59:43.086Z,6.30
2023-05-15T20:02:11.230Z,6.48
2023-05-15T20:04:39.120Z,4.73
2023-05-15T20:07:07.226Z,5.67
2023-05-15T20:09:36.770Z,6.29
2023-05-15T20:12:07.695Z,7.25
2023-05-15T20:14:35.172Z,6.67
2023-05-15T20:17:02.132Z,6.55
2023-05-15T20:19:31.511Z,6.41
2023-05-15T20:21:58.287Z,5.80
2023-05-15T20:24:26.359Z,6.68
2023-05-15T20:26:53.228Z,6.24
2023-05-15T20:29:21.331Z,7.07
2023-05-15T20:31:48.208Z,4.24
2023-05-15T20:34:15.104Z,5.04
2023-05-15T20:36:42.534Z,5.17
2023-05-15T20:39:09.884Z,6.17
2023-05-15T20:41:37.698Z,5.85
2023-05-15T20:44:05.297Z,6.18
2023-05-15T20:46:32.290Z,6.70
2023-05-15T20:48:59.230Z,6.86
2023-05-15T20:51:26.199Z,6.21
2023-05-15T20:53:53.114Z,6.57
2023-05-15T20:56:20.703Z,6.69
2023-05-15T20:58:47.546Z,7.06
2023-05-15T21:01:16.156Z,6.78
2023-05-15T21:03:43.333Z,5.47
2023-05-15T21:06:10.248Z,7.15
2023-05-15T21:08:37.157Z,6.35
2023-05-15T21:11:03.918Z,6.03
2023-05-15T21:13:30.993Z,6.00
2023-05-15T21:15:57.701Z,6.55
2023-05-15T21:18:25.018Z,6.51
2023-05-15T21:20:53.018Z,6.73
2023-05-15T21:23:21.792Z,6.75
2023-05-15T21:25:48.480Z,5.25
2023-05-15T21:28:15.961Z,6.71
2023-05-15T21:30:42.952Z,6.15
2023-05-15T21:33:10.246Z,6.62
2023-05-15T21:35:38.126Z,6.82
2023-05-15T21:38:06.103Z,7.07
2023-05-15T21:40:33.077Z,6.62
2023-05-15T21:43:00.207Z,6.47
2023-05-15T21:45:26.920Z,6.29
2023-05-15T21:47:53.775Z,6.67
2023-05-15T21:50:21.086Z,7.53
2023-05-15T21:52:51.153Z,7.32
2023-05-15T21:55:18.596Z,6.36
2023-05-15T21:57:45.476Z,6.38
2023-05-15T22:00:12.516Z,5.81
2023-05-15T22:02:39.285Z,5.88
2023-05-15T22:05:07.349Z,5.93
2023-05-15T22:07:34.081Z,6.63
2023-05-15T22:10:03.132Z,5.98
2023-05-15T22:12:30.365Z,7.22
2023-05-15T22:14:59.461Z,6.64
2023-05-15T22:17:29.203Z,6.67
2023-05-15T22:20:07.901Z,7.16
2023-05-15T22:22:36.016Z,7.02
2023-05-15T22:25:03.421Z,6.66
2023-05-15T22:27:30.631Z,7.31
2023-05-15T22:29:57.626Z,6.94
2023-05-15T22:32:24.717Z,6.55
2023-05-15T22:34:51.689Z,6.98
2023-05-15T22:37:18.446Z,5.68
2023-05-15T22:39:45.850Z,6.08
2023-05-15T22:42:12.616Z,6.32
2023-05-15T22:44:39.346Z,6.17
2023-05-15T22:47:06.801Z,6.04
2023-05-15T22:49:33.861Z,7.30
2023-05-15T22:52:00.968Z,7.27
2023-05-15T22:54:27.686Z,7.29
2023-05-15T22:56:54.751Z,6.90
2023-05-15T22:59:22.039Z,6.80
2023-05-15T23:01:49.721Z,5.57
2023-05-15T23:04:17.660Z,6.17
2023-05-15T23:06:44.559Z,6.66
2023-05-15T23:09:11.841Z,6.60
2023-05-15T23:11:38.796Z,6.81
2023-05-15T23:14:05.755Z,6.07
2023-05-15T23:16:32.474Z,6.40
2023-05-15T23:18:59.762Z,6.58
2023-05-15T23:21:27.065Z,6.93
2023-05-15T23:23:53.892Z,6.76
2023-05-15T23:26:20.959Z,6.55
2023-05-15T23:28:47.777Z,7.11
2023-05-15T23:31:14.675Z,7.51
2023-05-15T23:33:41.574Z,6.92
2023-05-15T23:36:08.938Z,6.96
2023-05-15T23:38:36.176Z,6.51
2023-05-15T23:41:03.026Z,6.79
2023-05-15T23:43:29.842Z,7.30
2023-05-15T23:45:56.675Z,6.86
2023-05-15T23:48:23.774Z,7.71
2023-05-15T23:50:52.440Z,6.52
2023-05-15T23:53:19.321Z,7.12
2023-05-15T23:55:46.099Z,7.27
2023-05-15T23:58:12.962Z,7.31
